Nearby METAR Reports

 

KMRB - Martinsburg, West Virginia, USA
Distance from station: NNW 9mi, 14km
Updated: 12/14/2017 11:53am
Overcast
Overcast
 Wind from WNW
Wind: WNW 13 mph , 20 km/h, Gust: 22 mph , 35 km/h
Temperature: 34°F , 1°C
Wind Chill: 25°F , -4°C
Dew Point: 16°F , -9°C
Humidity: 48%
Barometer: 29.87 inHg , 1011.5 hPa
Clouds: Overcast
Visibility: 10 miles , 16 km
Cloud details: Overcast 4900 ft
2017/12/14 16:53 KMRB 141653Z 29011G19KT 10SM OVC049 01/M09 A2987 RMK AO2 SLP121 T00111094 $
KOKV - Winchester Rgnl, Virginia, USA
Distance from station: SW 17mi, 28km
Updated: 12/14/2017 11:55am
Mostly cloudy
Mostly cloudy
 Wind from NW
Wind: NW 16 mph , 26 km/h
Temperature: 34°F , 1°C
Wind Chill: 24°F , -4°C
Dew Point: 18°F , -8°C
Humidity: 51%
Barometer: 29.86 inHg , 1011.2 hPa
Clouds: Mostly cloudy
Visibility: 10 miles , 16 km
Cloud details: Mostly cloudy 4700 ft
2017/12/14 16:55 KOKV 141655Z AUTO 31014KT 10SM BKN047 01/M08 A2986 RMK AO2
 
KJYO - Leesburg/Godfrey, Virginia, USA
Distance from station: SE 23mi, 38km
Updated: 12/14/2017 11:55am
Overcast
Overcast
 Wind from NNW
Wind: NNW 13 mph , 20 km/h, Gust: 21 mph , 33 km/h
Temperature: 36°F , 2°C
Wind Chill: 27°F , -3°C
Dew Point: 21°F , -6°C
Humidity: 56%
Barometer: 29.89 inHg , 1012.2 hPa
Clouds: Overcast
Visibility: 10 miles , 16 km
Cloud details: Overcast 4800 ft
2017/12/14 16:55 KJYO 141655Z AUTO 33011G18KT 10SM OVC048 02/M06 A2989 RMK AO2
KFDK - Frederick, Maryland, USA
Distance from station: ENE 30mi, 48km
Updated: 12/14/2017 11:47am
Mostly cloudy
Mostly cloudy
 Wind from NNW
Wind: NNW 13 mph , 20 km/h, Gust: 23 mph , 37 km/h
Temperature: 36°F , 2°C
Wind Chill: 27°F , -3°C
Dew Point: 12°F , -11°C
Humidity: 38%
Barometer: 29.91 inHg , 1012.9 hPa
Clouds: Mostly cloudy
Visibility: 10 miles , 16 km
Cloud details: Mostly cloudy 4800 ft
2017/12/14 16:47 KFDK 141647Z 34011G20KT 10SM BKN048 02/M11 A2991
 
KHGR - Hagerstown, Maryland, USA
Distance from station: NNE 30mi, 48km
Updated: 12/14/2017 11:53am
Mostly cloudy
Mostly cloudy
 Wind from NNW
Wind: NNW 16 mph , 26 km/h
Temperature: 34°F , 1°C
Wind Chill: 24°F , -4°C
Dew Point: 19°F , -7°C
Humidity: 56%
Barometer: 29.86 inHg , 1011.2 hPa
Clouds: Mostly cloudy
Visibility: 10 miles , 16 km
Cloud details: Mostly cloudy 4900 ft
2017/12/14 16:53 KHGR 141653Z 33014KT 10SM BKN049 01/M07 A2986 RMK AO2 SLP128 T00111067
KIAD - Wash Dc/Dulles, Virginia, USA
Distance from station: SE 34mi, 55km
Updated: 12/14/2017 11:52am
Mostly cloudy
Mostly cloudy
 Wind from NW
Wind: NW 22 mph , 35 km/h, Gust: 28 mph , 44 km/h
Temperature: 39°F , 4°C
Wind Chill: 29°F , -2°C
Dew Point: 18°F , -8°C
Humidity: 42%
Barometer: 29.87 inHg , 1011.5 hPa
Clouds: Mostly cloudy
Visibility: 10 miles , 16 km
Cloud details: Mostly cloudy 4500 ft
Mostly cloudy 6000 ft
2017/12/14 16:52 KIAD 141652Z 32019G24KT 10SM BKN045 BKN060 04/M08 A2987 RMK AO2 PK WND 32027/1623 SLP116 T00391078
 
KRSP - Nsf Thurmont, Maryland, USA
Distance from station: NE 34mi, 55km
Updated: 12/14/2017 11:54am
Clear
Clear
 Wind from NNW
Wind: NNW 18 mph , 30 km/h, Gust: 32 mph , 52 km/h
Temperature: 28°F , -2°C
Wind Chill: 15°F , -9°C
Dew Point: 16°F , -9°C
Humidity: 59%
Barometer: 29.76 inHg , 1007.8 hPa
Clouds: Clear
Visibility: 10 miles , 16 km
2017/12/14 16:54 KRSP 141654Z AUTO 33016G28KT 10SM CLR M02/M09 A2976 RMK AO2 PK WND 33032/1601 SLP103 T10221089 $
KGAI - Gaithersburg, Maryland, USA
Distance from station: E 40mi, 64km
Updated: 12/14/2017 11:56am
Overcast
Overcast
 Wind from NW
Wind: NW 10 mph , 17 km/h, Gust: 21 mph , 33 km/h
Temperature: 34°F , 1°C
Wind Chill: 26°F , -3°C
Dew Point: 18°F , -8°C
Humidity: 51%
Barometer: 29.87 inHg , 1011.5 hPa
Clouds: Overcast
Visibility: 10 miles , 16 km
Cloud details: Overcast 4000 ft
2017/12/14 16:56 KGAI 141656Z AUTO 32009G18KT 290V350 10SM OVC040 01/M08 A2987 RMK AO2 SLP146 T00111083 FZRANO
 
KRYT - Fountain Dale, Pennsylvania, USA
Distance from station: NE 40mi, 64km
Updated: 11/13/2017 7:53am
NOT Current
Mist, Overcast
Mist, Overcast
 Wind from calm
Wind: Calm
Temperature: 37°F , 3°C
Dew Point: 34°F , 1°C
Humidity: 87%
Barometer: 30.31 inHg , 1026.4 hPa
Summary: Mist
Clouds: Overcast
Visibility: 5 miles , 8 km
Cloud details: Overcast 700 ft
2017/11/13 12:53 KRYT 131253Z AUTO 00000KT 5SM BR OVC007 03/01 A3031 RMK AO2 SLP275 T00280011 TSNO $
KHEF - Manassas Muni, Virginia, USA
Distance from station: SSE 44mi, 72km
Updated: 12/14/2017 11:56am
Mostly cloudy
Mostly cloudy
 Wind from NNW
Wind: NNW 16 mph , 26 km/h, Gust: 23 mph , 37 km/h
Temperature: 39°F , 4°C
Wind Chill: 30°F , -1°C
Dew Point: 19°F , -7°C
Humidity: 45%
Barometer: 29.89 inHg , 1012.2 hPa
Clouds: Mostly cloudy
Visibility: 9 miles , 14 km
Cloud details: Few Clouds 4900 ft
Mostly cloudy 6000 ft
2017/12/14 16:56 KHEF 141656Z 34014G20KT 9SM FEW049 BKN060 04/M07 A2989 RMK AO2 SLP133 T00391067
 
KHWY - Warrenton, Virginia, USA
Distance from station: SSE 50mi, 80km
Updated: 12/14/2017 11:55am
Overcast
Overcast
 Wind from N
Wind: N 13 mph , 20 km/h, Gust: 20 mph , 31 km/h
Temperature: 43°F , 6°C
Wind Chill: 36°F , 2°C
Dew Point: 18°F , -8°C
Humidity: 36%
Barometer: 29.86 inHg , 1011.2 hPa
Clouds: Overcast
Visibility: 10 miles , 16 km
Cloud details: Overcast 6000 ft
2017/12/14 16:55 KHWY 141655Z AUTO 35011G17KT 10SM OVC060 06/M08 A2986 RMK AO2 T00641076